createdAt,value
2023-12-18T00:01:04.445Z,6.32
2023-12-18T00:03:33.470Z,6.42
2023-12-18T00:06:01.069Z,6.41
2023-12-18T00:08:28.639Z,6.42
2023-12-18T00:10:56.233Z,6.37
2023-12-18T00:13:23.818Z,6.43
2023-12-18T00:15:51.345Z,6.44
2023-12-18T00:18:19.089Z,6.25
2023-12-18T00:20:48.034Z,6.19
2023-12-18T00:23:15.606Z,6.29
2023-12-18T00:25:44.152Z,6.15
2023-12-18T00:28:11.670Z,6.26
2023-12-18T00:30:39.295Z,6.22
2023-12-18T00:33:07.016Z,6.26
2023-12-18T00:35:34.635Z,6.10
2023-12-18T00:38:03.481Z,5.83
2023-12-18T00:40:31.046Z,5.40
2023-12-18T00:42:59.013Z,5.22
2023-12-18T00:45:26.612Z,5.38
2023-12-18T00:47:54.389Z,5.57
2023-12-18T00:50:22.223Z,5.43
2023-12-18T00:52:49.886Z,6.14
2023-12-18T00:55:18.748Z,5.95
2023-12-18T00:57:49.483Z,5.89
2023-12-18T01:00:20.094Z,6.02
2023-12-18T01:02:48.366Z,6.28
2023-12-18T01:05:16.120Z,5.92
2023-12-18T01:07:44.377Z,6.07
2023-12-18T01:10:12.303Z,6.04
2023-12-18T01:12:41.284Z,5.91
2023-12-18T01:15:09.457Z,5.91
2023-12-18T01:17:37.231Z,5.97
2023-12-18T01:20:05.423Z,5.92
2023-12-18T01:22:33.029Z,6.28
2023-12-18T01:25:00.582Z,5.90
2023-12-18T01:27:28.166Z,5.93
2023-12-18T01:29:57.056Z,5.93
2023-12-18T01:32:24.637Z,5.82
2023-12-18T01:34:52.163Z,5.91
2023-12-18T01:37:19.740Z,5.94
2023-12-18T01:39:47.351Z,5.92
2023-12-18T01:42:14.914Z,5.91
2023-12-18T01:44:42.528Z,5.88
2023-12-18T01:47:11.658Z,5.92
2023-12-18T01:49:39.849Z,5.90
2023-12-18T01:52:08.004Z,5.79
2023-12-18T01:54:36.355Z,5.80
2023-12-18T01:57:06.022Z,5.82
2023-12-18T01:59:34.389Z,5.77
2023-12-18T02:02:02.003Z,5.81
2023-12-18T02:04:31.568Z,5.78
2023-12-18T02:07:03.128Z,5.78
2023-12-18T02:09:31.582Z,5.70
2023-12-18T02:11:59.147Z,5.75
2023-12-18T02:14:26.723Z,5.72
2023-12-18T02:16:54.293Z,5.79
2023-12-18T02:19:26.652Z,5.72
2023-12-18T02:21:56.565Z,5.67
2023-12-18T02:24:25.985Z,5.72
2023-12-18T02:26:55.132Z,5.69
2023-12-18T02:29:22.751Z,5.69
2023-12-18T02:31:50.339Z,5.71
2023-12-18T02:34:18.113Z,5.70
2023-12-18T02:36:45.777Z,5.71
2023-12-18T02:39:13.398Z,5.62
2023-12-18T02:41:42.325Z,5.62
2023-12-18T02:44:09.932Z,5.67
2023-12-18T02:46:37.443Z,5.53
2023-12-18T02:49:05.131Z,5.62
2023-12-18T02:51:32.839Z,5.59
2023-12-18T02:54:00.424Z,5.49
2023-12-18T02:56:27.974Z,5.56
2023-12-18T02:58:56.960Z,5.30
2023-12-18T03:01:24.627Z,5.25
2023-12-18T03:03:52.439Z,5.24
2023-12-18T03:06:20.111Z,5.23
2023-12-18T03:08:47.731Z,5.31
2023-12-18T03:11:15.293Z,5.27
2023-12-18T03:13:42.844Z,5.21
2023-12-18T03:16:11.850Z,5.25
2023-12-18T03:18:39.986Z,5.21
2023-12-18T03:21:11.067Z,5.23
2023-12-18T03:23:38.716Z,5.24
2023-12-18T03:26:06.338Z,5.51
2023-12-18T03:28:33.914Z,5.45
2023-12-18T03:31:01.523Z,5.55
2023-12-18T03:33:32.416Z,5.66
2023-12-18T03:36:00.160Z,5.57
2023-12-18T03:38:27.715Z,5.74
2023-12-18T03:40:55.244Z,5.74
2023-12-18T03:43:22.774Z,5.64
2023-12-18T03:45:50.451Z,5.68
2023-12-18T03:48:19.619Z,5.69
2023-12-18T03:50:48.905Z,5.80
2023-12-18T03:53:16.467Z,5.75
2023-12-18T03:55:43.982Z,5.71
2023-12-18T03:58:11.569Z,5.70
2023-12-18T04:00:39.155Z,5.80
2023-12-18T04:03:07.346Z,5.78
2023-12-18T04:05:35.368Z,5.84
2023-12-18T04:08:04.659Z,5.73
2023-12-18T04:10:32.241Z,5.81
2023-12-18T04:12:59.773Z,5.84
2023-12-18T04:15:27.364Z,5.88
2023-12-18T04:17:56.666Z,5.86
2023-12-18T04:20:24.345Z,5.89
2023-12-18T04:22:53.143Z,5.93
2023-12-18T04:25:22.102Z,5.87
2023-12-18T04:27:49.772Z,5.91
2023-12-18T04:30:17.461Z,5.76
2023-12-18T04:32:45.065Z,5.83
2023-12-18T04:35:12.659Z,5.95
2023-12-18T04:37:40.545Z,5.97
2023-12-18T04:40:09.460Z,5.95
2023-12-18T04:42:38.389Z,5.98
2023-12-18T04:45:06.634Z,6.00
2023-12-18T04:47:34.228Z,5.96
2023-12-18T04:50:01.788Z,6.05
2023-12-18T04:52:29.393Z,5.93
2023-12-18T04:54:57.070Z,5.91
2023-12-18T04:57:24.713Z,5.92
2023-12-18T04:59:53.565Z,5.87
2023-12-18T05:02:21.082Z,5.79
2023-12-18T05:04:48.732Z,5.85
2023-12-18T05:07:16.336Z,5.80
2023-12-18T05:09:45.343Z,5.89
2023-12-18T05:12:14.229Z,5.95
2023-12-18T05:14:41.836Z,5.91
2023-12-18T05:17:10.670Z,5.92
2023-12-18T05:19:38.289Z,5.87
2023-12-18T05:22:06.918Z,5.78
2023-12-18T05:24:34.502Z,5.93
2023-12-18T05:27:02.032Z,5.85
2023-12-18T05:29:29.556Z,5.77
2023-12-18T05:31:57.076Z,5.87
2023-12-18T05:34:27.280Z,5.67
2023-12-18T05:36:56.488Z,5.72
2023-12-18T05:39:25.096Z,5.84
2023-12-18T05:41:52.691Z,5.70
2023-12-18T05:44:20.239Z,5.47
2023-12-18T05:46:47.773Z,5.54
2023-12-18T05:49:15.515Z,5.72
2023-12-18T05:51:44.442Z,5.68
2023-12-18T05:54:12.007Z,5.45
2023-12-18T05:56:39.541Z,5.59
2023-12-18T05:59:07.051Z,5.63
2023-12-18T06:01:34.638Z,5.35
2023-12-18T06:04:02.295Z,5.32
2023-12-18T06:06:30.026Z,5.30
2023-12-18T06:08:58.941Z,5.68
2023-12-18T06:11:26.489Z,5.64
2023-12-18T06:13:54.083Z,5.58
2023-12-18T06:16:21.635Z,5.31
2023-12-18T06:18:49.453Z,5.55
2023-12-18T06:21:17.126Z,5.63
2023-12-18T06:23:45.151Z,5.49
2023-12-18T06:26:14.018Z,5.35
2023-12-18T06:28:41.624Z,5.29
2023-12-18T06:31:09.268Z,5.40
2023-12-18T06:33:37.014Z,5.10
2023-12-18T06:36:05.093Z,5.21
2023-12-18T06:38:33.179Z,5.25
2023-12-18T06:41:00.701Z,5.22
2023-12-18T06:43:29.686Z,5.11
2023-12-18T06:45:57.471Z,5.22
2023-12-18T06:48:25.255Z,5.18
2023-12-18T06:50:52.924Z,5.38
2023-12-18T06:53:20.634Z,5.08
2023-12-18T06:55:48.285Z,5.32
2023-12-18T06:58:16.637Z,5.18
2023-12-18T07:00:45.844Z,5.15
2023-12-18T07:03:13.546Z,5.32
2023-12-18T07:05:41.156Z,5.41
2023-12-18T07:08:09.007Z,5.43
2023-12-18T07:10:36.576Z,5.30
2023-12-18T07:13:04.194Z,4.96
2023-12-18T07:15:31.842Z,5.36
2023-12-18T07:18:01.024Z,5.20
2023-12-18T07:20:28.798Z,5.19
2023-12-18T07:22:57.358Z,5.19
2023-12-18T07:25:24.901Z,5.38
2023-12-18T07:27:52.461Z,5.43
2023-12-18T07:30:21.707Z,5.24
2023-12-18T07:32:49.637Z,5.22
2023-12-18T07:35:18.935Z,5.11
2023-12-18T07:37:47.488Z,5.39
2023-12-18T07:40:15.082Z,5.41
2023-12-18T07:42:42.879Z,5.04
2023-12-18T07:45:11.594Z,5.19
2023-12-18T07:47:40.595Z,5.44
2023-12-18T07:50:09.371Z,4.93
2023-12-18T07:52:38.223Z,5.26
2023-12-18T07:55:06.565Z,5.32
2023-12-18T07:57:34.164Z,5.31
2023-12-18T08:00:00.816Z,5.52
2023-12-18T08:02:28.382Z,5.46
2023-12-18T08:04:55.985Z,5.48
2023-12-18T08:07:23.551Z,5.25
2023-12-18T08:09:52.400Z,5.47
2023-12-18T08:12:20.017Z,5.50
2023-12-18T08:14:47.554Z,5.54
2023-12-18T08:17:16.436Z,5.71
2023-12-18T08:19:47.673Z,5.53
2023-12-18T08:22:15.489Z,5.66
2023-12-18T08:24:43.861Z,5.52
2023-12-18T08:27:12.975Z,5.40
2023-12-18T08:29:41.310Z,5.32
2023-12-18T08:32:08.934Z,5.38
2023-12-18T08:34:37.273Z,5.52
2023-12-18T08:37:07.164Z,5.50
2023-12-18T08:39:34.858Z,5.52
2023-12-18T08:42:02.395Z,5.61
2023-12-18T08:44:31.270Z,5.50
2023-12-18T08:46:59.394Z,5.66
2023-12-18T08:49:27.174Z,5.70
2023-12-18T08:51:54.898Z,5.68
2023-12-18T08:54:22.638Z,5.64
2023-12-18T08:56:52.895Z,5.51
2023-12-18T08:59:21.746Z,5.74
2023-12-18T09:01:51.460Z,5.56
2023-12-18T09:04:19.283Z,5.62
2023-12-18T09:06:46.955Z,5.55
2023-12-18T09:09:14.896Z,5.64
2023-12-18T09:11:42.539Z,5.55
2023-12-18T09:14:10.077Z,5.62
2023-12-18T09:16:38.801Z,5.54
2023-12-18T09:19:08.019Z,5.64
2023-12-18T09:21:35.716Z,5.42
2023-12-18T09:24:03.303Z,5.68
2023-12-18T09:26:31.019Z,5.67
2023-12-18T09:29:00.599Z,5.70
2023-12-18T09:31:28.253Z,5.79
2023-12-18T09:33:55.825Z,5.68
2023-12-18T09:36:24.765Z,5.66
2023-12-18T09:38:52.307Z,5.76
2023-12-18T09:41:24.230Z,5.81
2023-12-18T09:43:53.206Z,5.80
2023-12-18T09:46:24.159Z,5.77
2023-12-18T09:48:52.075Z,5.82
2023-12-18T09:51:24.455Z,5.81
2023-12-18T09:53:53.545Z,5.86
2023-12-18T09:56:22.677Z,5.94
2023-12-18T09:58:50.345Z,5.85
2023-12-18T10:01:18.017Z,5.88
2023-12-18T10:03:45.896Z,5.91
2023-12-18T10:06:14.711Z,5.96
2023-12-18T10:08:44.177Z,5.95
2023-12-18T10:11:25.002Z,6.08
2023-12-18T10:13:53.403Z,6.13
2023-12-18T10:16:21.049Z,6.12
2023-12-18T10:18:48.630Z,6.18
2023-12-18T10:21:24.057Z,6.18
2023-12-18T10:23:54.541Z,6.17
2023-12-18T10:26:23.059Z,6.24
2023-12-18T10:28:51.971Z,6.27
2023-12-18T10:31:19.853Z,6.24
2023-12-18T10:33:47.600Z,6.08
2023-12-18T10:36:18.122Z,6.18
2023-12-18T10:38:49.777Z,6.24
2023-12-18T10:41:21.729Z,6.27
2023-12-18T10:43:50.746Z,6.08
2023-12-18T10:46:18.585Z,6.27
2023-12-18T10:48:50.234Z,6.26
2023-12-18T10:51:22.072Z,6.28
2023-12-18T10:53:50.624Z,6.31
2023-12-18T10:56:22.465Z,6.32
2023-12-18T10:58:52.208Z,6.18
2023-12-18T11:01:21.278Z,6.42
2023-12-18T11:03:49.415Z,6.34
2023-12-18T11:06:20.011Z,6.52
2023-12-18T11:08:49.190Z,6.43
2023-12-18T11:11:20.071Z,6.50
2023-12-18T11:14:02.232Z,6.57
2023-12-18T11:16:39.954Z,6.68
2023-12-18T11:19:23.368Z,6.61
2023-12-18T11:21:55.059Z,6.59
2023-12-18T11:24:22.773Z,6.65
2023-12-18T11:26:53.255Z,6.57
2023-12-18T11:29:44.358Z,6.55
2023-12-18T11:32:13.083Z,6.47
2023-12-18T11:34:41.744Z,6.35
2023-12-18T11:37:10.433Z,6.46
2023-12-18T11:39:50.002Z,6.45
2023-12-18T11:42:49.424Z,6.45
2023-12-18T11:45:17.150Z,6.57
2023-12-18T11:47:44.828Z,6.46
2023-12-18T11:50:12.809Z,6.52
2023-12-18T11:52:40.720Z,6.57
2023-12-18T11:55:09.664Z,6.56
2023-12-18T11:57:44.827Z,6.54
2023-12-18T12:00:16.126Z,6.54
2023-12-18T12:02:44.289Z,6.52
2023-12-18T12:05:14.281Z,6.51
2023-12-18T12:07:42.070Z,6.55
2023-12-18T12:10:09.937Z,6.37
2023-12-18T12:12:37.629Z,6.55
2023-12-18T12:15:05.663Z,6.38
2023-12-18T12:17:34.635Z,6.44
2023-12-18T12:20:02.294Z,6.48
2023-12-18T12:22:30.796Z,6.38
2023-12-18T12:24:58.412Z,6.44
2023-12-18T12:27:27.406Z,6.49
2023-12-18T12:29:55.005Z,6.52
2023-12-18T12:32:22.726Z,6.68
2023-12-18T12:34:52.299Z,6.43
2023-12-18T12:37:20.269Z,6.69
2023-12-18T12:40:01.367Z,6.81
2023-12-18T12:42:29.237Z,6.79
2023-12-18T12:44:57.272Z,6.86
2023-12-18T12:47:24.797Z,6.83
2023-12-18T12:49:53.761Z,6.89
2023-12-18T12:52:22.260Z,6.81
2023-12-18T12:54:49.064Z,6.79
2023-12-18T12:57:17.791Z,6.71
2023-12-18T12:59:53.069Z,6.77
2023-12-18T13:02:21.117Z,6.70
2023-12-18T13:04:49.956Z,6.76
2023-12-18T13:07:19.725Z,6.64
2023-12-18T13:09:47.224Z,6.81
2023-12-18T13:12:15.898Z,6.79
2023-12-18T13:14:43.503Z,6.49
2023-12-18T13:17:11.023Z,6.76
2023-12-18T13:19:38.964Z,6.71
2023-12-18T13:22:08.061Z,6.68
2023-12-18T13:24:38.439Z,6.74
2023-12-18T13:27:06.604Z,6.54
2023-12-18T13:29:34.872Z,6.70
2023-12-18T13:32:02.678Z,6.77
2023-12-18T13:34:30.722Z,6.60
2023-12-18T13:36:58.586Z,6.76
2023-12-18T13:39:26.681Z,6.76
2023-12-18T13:41:57.729Z,6.76
2023-12-18T13:44:25.587Z,6.75
2023-12-18T13:46:53.960Z,6.74
2023-12-18T13:49:21.636Z,6.70
2023-12-18T13:51:49.676Z,6.61
2023-12-18T13:54:18.124Z,6.51
2023-12-18T13:56:46.548Z,6.77
2023-12-18T13:59:15.400Z,6.80
2023-12-18T14:01:43.054Z,6.72
2023-12-18T14:04:11.368Z,6.76
2023-12-18T14:06:39.479Z,6.78
2023-12-18T14:09:07.308Z,6.67
2023-12-18T14:11:34.878Z,6.82
2023-12-18T14:14:02.435Z,6.78
2023-12-18T14:16:31.453Z,6.74
2023-12-18T14:18:59.142Z,6.83
2023-12-18T14:21:27.695Z,6.84
2023-12-18T14:23:55.378Z,6.91
2023-12-18T14:26:22.924Z,6.75
2023-12-18T14:28:50.596Z,6.81
2023-12-18T14:31:18.223Z,6.57
2023-12-18T14:33:47.570Z,6.72
2023-12-18T14:36:15.320Z,6.96
2023-12-18T14:38:43.024Z,6.93
2023-12-18T14:41:10.578Z,6.93
2023-12-18T14:43:39.172Z,6.93
2023-12-18T14:46:08.870Z,6.91
2023-12-18T14:48:36.825Z,6.52
2023-12-18T14:51:06.090Z,6.45
2023-12-18T14:53:33.624Z,6.51
2023-12-18T14:56:02.128Z,6.86
2023-12-18T14:58:29.690Z,6.75
2023-12-18T15:00:57.397Z,6.31
2023-12-18T15:03:25.246Z,6.46
2023-12-18T15:05:53.018Z,6.61
2023-12-18T15:08:22.045Z,5.67
2023-12-18T15:10:49.616Z,5.78
2023-12-18T15:13:17.157Z,6.46
2023-12-18T15:15:44.944Z,6.36
2023-12-18T15:18:12.864Z,5.54
2023-12-18T15:20:40.458Z,5.71
2023-12-18T15:23:07.990Z,6.25
2023-12-18T15:25:36.993Z,5.52
2023-12-18T15:28:05.142Z,5.45
2023-12-18T15:30:32.813Z,5.16
2023-12-18T15:33:00.811Z,5.75
2023-12-18T15:35:28.394Z,5.58
2023-12-18T15:37:55.972Z,5.66
2023-12-18T15:40:23.619Z,5.86
2023-12-18T15:42:52.574Z,6.13
2023-12-18T15:45:20.236Z,5.32
2023-12-18T15:47:48.064Z,5.22
2023-12-18T15:50:17.061Z,5.66
2023-12-18T15:52:45.132Z,5.65
2023-12-18T15:55:13.018Z,5.65
2023-12-18T15:57:40.720Z,5.49
2023-12-18T16:00:12.012Z,5.31
2023-12-18T16:02:40.044Z,5.57
2023-12-18T16:05:08.686Z,5.33
2023-12-18T16:07:38.781Z,5.69
2023-12-18T16:10:07.384Z,5.66
2023-12-18T16:12:35.142Z,5.24
2023-12-18T16:15:03.402Z,5.62
2023-12-18T16:17:32.340Z,5.58
2023-12-18T16:19:59.995Z,5.63
2023-12-18T16:22:27.516Z,5.52
2023-12-18T16:24:55.620Z,5.63
2023-12-18T16:27:23.227Z,5.53
2023-12-18T16:29:54.715Z,5.38
2023-12-18T16:32:22.520Z,5.04
2023-12-18T16:34:51.563Z,5.45
2023-12-18T16:37:22.167Z,5.02
2023-12-18T16:39:49.764Z,5.32
2023-12-18T16:42:16.488Z,5.39
2023-12-18T16:44:44.079Z,4.88
2023-12-18T16:47:12.577Z,5.26
2023-12-18T16:49:40.191Z,5.04
2023-12-18T16:52:09.175Z,4.92
2023-12-18T16:54:36.781Z,5.28
2023-12-18T16:57:04.840Z,5.29
2023-12-18T16:59:32.353Z,5.07
2023-12-18T17:02:00.020Z,4.74
2023-12-18T17:04:27.637Z,4.85
2023-12-18T17:06:55.507Z,5.00
2023-12-18T17:09:24.432Z,5.22
2023-12-18T17:11:52.057Z,5.13
2023-12-18T17:14:19.940Z,5.07
2023-12-18T17:16:47.963Z,5.30
2023-12-18T17:19:15.594Z,5.20
2023-12-18T17:21:43.184Z,5.12
2023-12-18T17:24:10.803Z,4.95
2023-12-18T17:26:39.640Z,5.00
2023-12-18T17:29:07.267Z,4.97
2023-12-18T17:31:34.945Z,4.82
2023-12-18T17:34:03.714Z,4.86
2023-12-18T17:36:31.529Z,4.73
2023-12-18T17:38:59.414Z,4.65
2023-12-18T17:41:27.494Z,4.61
2023-12-18T17:43:56.365Z,4.65
2023-12-18T17:46:23.913Z,4.60
2023-12-18T17:48:51.742Z,4.58
2023-12-18T17:51:19.465Z,4.82
2023-12-18T17:53:47.003Z,4.66
2023-12-18T17:56:14.566Z,4.63
2023-12-18T17:58:42.199Z,4.92
2023-12-18T18:01:14.401Z,4.75
2023-12-18T18:03:42.134Z,5.03
2023-12-18T18:06:10.019Z,4.91
2023-12-18T18:08:37.597Z,4.93
2023-12-18T18:11:05.675Z,4.69
2023-12-18T18:13:33.231Z,4.75
2023-12-18T18:16:00.836Z,4.70
2023-12-18T18:18:29.905Z,4.83
2023-12-18T18:20:57.564Z,4.82
2023-12-18T18:23:25.103Z,4.72
2023-12-18T18:25:52.677Z,4.73
2023-12-18T18:28:20.201Z,4.78
2023-12-18T18:30:49.443Z,4.71
2023-12-18T18:33:17.285Z,4.91
2023-12-18T18:35:47.044Z,4.72
2023-12-18T18:38:16.124Z,4.84
2023-12-18T18:40:43.682Z,4.86
2023-12-18T18:43:11.492Z,4.76
2023-12-18T18:45:39.807Z,4.81
2023-12-18T18:48:08.478Z,5.11
2023-12-18T18:50:36.311Z,4.85
2023-12-18T18:53:08.937Z,4.91
2023-12-18T18:55:36.473Z,4.83
2023-12-18T18:58:04.419Z,4.79
2023-12-18T19:00:32.353Z,4.97
2023-12-18T19:03:00.918Z,4.91
2023-12-18T19:05:29.492Z,5.07
2023-12-18T19:07:57.127Z,4.85
2023-12-18T19:10:26.686Z,4.90
2023-12-18T19:12:54.290Z,5.02
2023-12-18T19:15:21.943Z,5.00
2023-12-18T19:17:49.547Z,4.86
2023-12-18T19:20:17.166Z,4.95
2023-12-18T19:22:45.312Z,5.02
2023-12-18T19:25:12.996Z,4.96
2023-12-18T19:27:42.465Z,4.97
2023-12-18T19:30:11.639Z,5.12
2023-12-18T19:32:41.172Z,5.07
2023-12-18T19:35:09.573Z,5.12
2023-12-18T19:37:37.096Z,5.16
2023-12-18T19:40:05.170Z,5.05
2023-12-18T19:42:32.751Z,5.11
2023-12-18T19:45:01.703Z,5.20
2023-12-18T19:47:29.537Z,5.19
2023-12-18T19:49:57.196Z,5.10
2023-12-18T19:52:24.851Z,5.21
2023-12-18T19:54:52.470Z,5.25
2023-12-18T19:57:20.382Z,5.28
2023-12-18T19:59:48.924Z,5.22
2023-12-18T20:02:20.813Z,5.23
2023-12-18T20:04:48.337Z,5.32
2023-12-18T20:07:15.993Z,5.24
2023-12-18T20:09:43.654Z,5.26
2023-12-18T20:12:13.353Z,5.25
2023-12-18T20:14:40.872Z,5.30
2023-12-18T20:17:08.417Z,5.30
2023-12-18T20:19:37.350Z,5.39
2023-12-18T20:22:05.542Z,5.37
2023-12-18T20:24:33.177Z,5.42
2023-12-18T20:27:01.683Z,5.40
2023-12-18T20:29:32.284Z,5.47
2023-12-18T20:31:59.883Z,5.36
2023-12-18T20:34:27.650Z,5.42
2023-12-18T20:36:56.588Z,5.43
2023-12-18T20:39:24.203Z,5.41
2023-12-18T20:41:51.771Z,5.42
2023-12-18T20:44:19.324Z,5.44
2023-12-18T20:46:46.842Z,5.42
2023-12-18T20:49:14.664Z,5.47
2023-12-18T20:51:42.419Z,5.46
2023-12-18T20:54:11.666Z,5.47
2023-12-18T20:56:39.284Z,5.48
2023-12-18T20:59:07.223Z,5.43
2023-12-18T21:01:34.883Z,5.47
2023-12-18T21:04:02.681Z,5.44
2023-12-18T21:06:30.314Z,5.59
2023-12-18T21:08:57.862Z,5.55
2023-12-18T21:11:25.746Z,5.61
2023-12-18T21:13:53.306Z,5.54
2023-12-18T21:16:20.852Z,5.53
2023-12-18T21:18:48.537Z,5.48
2023-12-18T21:21:16.635Z,5.54
2023-12-18T21:23:44.179Z,5.52
2023-12-18T21:26:12.879Z,5.49
2023-12-18T21:28:41.736Z,5.53
2023-12-18T21:31:09.726Z,5.52
2023-12-18T21:33:37.581Z,5.53
2023-12-18T21:36:06.154Z,5.41
2023-12-18T21:38:33.812Z,5.47
2023-12-18T21:41:02.234Z,5.48
2023-12-18T21:43:32.139Z,5.51
2023-12-18T21:46:01.030Z,5.55
2023-12-18T21:48:28.816Z,5.49
2023-12-18T21:50:56.886Z,5.49
2023-12-18T21:53:24.409Z,5.53
2023-12-18T21:55:52.174Z,5.52
2023-12-18T21:58:19.793Z,5.44
2023-12-18T22:00:47.343Z,5.41
2023-12-18T22:03:18.243Z,5.33
2023-12-18T22:05:46.165Z,5.40
2023-12-18T22:08:14.097Z,5.35
2023-12-18T22:10:41.705Z,5.46
2023-12-18T22:13:09.272Z,5.36
2023-12-18T22:15:36.994Z,5.34
2023-12-18T22:18:05.095Z,5.39
2023-12-18T22:20:34.019Z,5.34
2023-12-18T22:23:01.664Z,5.35
2023-12-18T22:25:29.182Z,5.60
2023-12-18T22:27:56.749Z,5.50
2023-12-18T22:30:24.556Z,5.47
2023-12-18T22:32:52.190Z,5.40
2023-12-18T22:35:19.903Z,5.36
2023-12-18T22:37:48.831Z,5.40
2023-12-18T22:40:16.491Z,5.30
2023-12-18T22:42:44.229Z,5.27
2023-12-18T22:45:12.345Z,5.21
2023-12-18T22:47:40.000Z,5.15
2023-12-18T22:50:09.125Z,5.23
2023-12-18T22:52:36.912Z,5.27
2023-12-18T22:55:06.835Z,5.19
2023-12-18T22:57:35.025Z,5.20
2023-12-18T23:00:03.019Z,5.32
2023-12-18T23:02:30.811Z,5.28
2023-12-18T23:04:59.130Z,5.27
2023-12-18T23:07:26.882Z,5.30
2023-12-18T23:09:55.100Z,5.35
2023-12-18T23:12:24.024Z,5.41
2023-12-18T23:14:51.577Z,5.41
2023-12-18T23:17:19.117Z,5.38
2023-12-18T23:19:46.694Z,5.31
2023-12-18T23:22:14.345Z,5.21
2023-12-18T23:24:42.442Z,5.15
2023-12-18T23:27:11.182Z,5.20
2023-12-18T23:29:40.028Z,5.21
2023-12-18T23:32:08.022Z,5.25
2023-12-18T23:34:35.653Z,5.16
2023-12-18T23:37:03.357Z,5.20
2023-12-18T23:39:30.905Z,5.17
2023-12-18T23:41:58.476Z,5.20
2023-12-18T23:44:26.008Z,5.19
2023-12-18T23:46:54.846Z,5.18
2023-12-18T23:49:24.000Z,5.19
2023-12-18T23:51:51.771Z,5.19
2023-12-18T23:54:19.348Z,5.20
2023-12-18T23:56:46.879Z,5.29
2023-12-18T23:59:14.409Z,5.29
